Weather observations for the past three days for
Albuquerque, Double Eagle II Airport
Imperial (Metric)
Date Time (mdt) Wind (mph) Vis. (mi.) Weather Sky Cond. Temperature (ºF) Relative Humidity Wind Chill (°F) Heat Index (°F) Pressure Precipitation (in)
Air Dwpt 6 hour altimeter (in) sea level (mb) 1 hr 3 hr 6 hr
Max. Min.
10 09:47 SW 6 10.00 NULL NULL 69.8 24.8 18% 30.15 0.0
10 08:47 Calm 10.00 NULL NULL 64.4 24.8 22% 30.13 0.0
10 07:47 Calm 10.00 NULL NULL 59 23 25% 30.13 0.0
10 06:55 NW 8 10.00 Partly Cloudy SCT120 59 23 25% 30.1 0.0
10 05:35 N 9 10.00 Partly Cloudy SCT120 62.6 21.7 21% 30.1 0.0
10 05:15 W 9 G 16 10.00 Partly Cloudy SCT120 66 21.9 19% 30.09 0.0
10 04:55 SW 17 G 24 10.00 Partly Cloudy SCT110 68.2 21.6 17% 30.09 0.0
10 04:35 SW 3 10.00 Mostly Cloudy BKN110 62.8 23.4 22% 30.09 0.0
10 04:15 W 8 10.00 Mostly Cloudy BKN120 60.6 24.1 25% 30.1 0.0
10 03:55 SW 8 10.00 Mostly Cloudy BKN120 60.3 23.4 24% 30.09 0.0
10 03:35 SW 3 10.00 Partly Cloudy SCT120 62.1 22.3 22% 30.08 0.0
10 03:15 NW 5 10.00 Partly Cloudy SCT120 63.5 21.6 20% 30.09 0.0
10 02:55 NW 7 10.00 Mostly Cloudy BKN120 63 21.7 21% 30.09 0.0
10 02:35 NW 8 G 17 10.00 Fair CLR 64.4 21.2 19% 30.08 0.0
10 02:15 NW 7 10.00 Fair CLR 61.9 21.4 21% 30.06 0.0
10 01:55 N 9 10.00 Fair CLR 63.5 21 20% 30.06 0.0
10 01:35 N 8 10.00 Fair CLR 62.6 21.2 20% 30.06 0.0
10 01:15 N 13 10.00 Fair CLR 64 21 19% 30.05 0.0
10 00:55 NW 7 10.00 Fair CLR 61.7 20.3 20% 30.05 0.0
10 00:35 N 9 10.00 Fair CLR 63.7 19.9 19% 30.04 0.0
10 00:15 N 9 10.00 Fair CLR 65.8 19.8 17% 30.03 0.0
09 23:55 N 14 10.00 Fair CLR 66.7 19.4 80.4 64.4 16% 30.03 0.0
09 23:35 N 15 10.00 Fair CLR 67.1 19.2 16% 30.02 0.0
09 23:15 NW 15 10.00 Fair CLR 65.5 17.6 16% 30.02 0.0
09 22:55 NW 12 10.00 Fair CLR 64.6 15.4 15% 30.02 0.0
09 22:35 NW 12 10.00 Fair CLR 64.4 14.2 14% 30.01 0.0
09 22:15 N 10 10.00 Fair CLR 66.4 13.5 13% 30.01 0.0
09 21:55 N 12 10.00 Fair CLR 68 12.4 11% 30 0.0
09 21:35 N 12 10.00 Fair CLR 69.4 11.7 11% 29.99 0.0
09 21:15 NW 12 10.00 Fair CLR 69.6 13.1 11% 29.99 0.0
09 20:47 W 8 10.00 Fair CLR 73.4 12.2 9% 29.98 0.0
09 19:47 W 14 G 17 10.00 Fair CLR 78.8 12.2 8% 77 29.95 0.0
09 18:47 W 12 G 18 10.00 Fair CLR 78.8 12.2 8% 77 29.94 0.0
09 17:47 W 12 G 22 10.00 Fair CLR 80.6 3.2 5% 78 29.95 0.0
09 16:47 W 12 G 23 10.00 Fair CLR 84.2 3.2 4% 81 29.95 0.0
09 15:47 W 15 G 25 10.00 Fair CLR 84.2 3.2 4% 81 29.97 0.0
09 14:47 W 15 G 25 10.00 Fair CLR 84.2 6.8 5% 81 30 0.0
09 13:47 SW 17 G 24 10.00 Fair CLR 82.4 10.4 6% 80 30.02 0.0
09 12:47 W 12 G 17 10.00 Fair CLR 82.4 15.8 8% 80 30.04 0.0
09 11:47 W 8 G 17 10.00 Fair CLR 78.8 17.6 10% 77 30.07 0.0
09 10:50 SE 6 10.00 Fair CLR 75.2 21.2 13% 75 30.09 0.0
09 09:50 S 7 10.00 Fair CLR 71.6 19.4 14% 30.09 0.0
09 08:50 Calm 10.00 Fair CLR 64.4 19.4 18% 30.09 0.0
09 07:50 Vrbl 7 G 13 10.00 Fair CLR 59 19.4 21% 30.08 0.0
09 06:50 Vrbl 7 G 12 10.00 Fair CLR 51.8 19.4 28% 30.05 0.0
09 05:50 W 9 10.00 Fair CLR 51.8 19.4 28% 30.04 0.0
09 05:35 W 13 10.00 Fair CLR 48.7 20.1 32% 44 30.04 0.0
09 05:15 W 5 10.00 Fair CLR 47.1 19.2 33% 46 30.03 0.0
09 04:55 W 3 10.00 Fair CLR 49.3 19.2 30% 30.03 0.0
09 04:35 W 3 10.00 Fair CLR 47.3 19 32% 30.02 0.0
09 04:15 Calm 10.00 Fair CLR 57.2 18.1 22% 30.02 0.0
09 03:55 Calm 10.00 Fair CLR 57.7 18.7 22% 30.02 0.0
09 03:35 Calm 10.00 Fair CLR 60.3 18.3 20% 30.02 0.0
09 03:15 E 6 10.00 Fair CLR 55.2 18.7 24% 30.02 0.0
09 02:55 W 7 10.00 Fair CLR 52 18.5 27% 30.01 0.0
09 02:35 W 7 10.00 Fair CLR 53.8 18.1 25% 30.02 0.0
09 02:15 W 9 10.00 Fair CLR 53.6 18.1 25% 30.02 0.0
09 01:35 W 8 10.00 Fair CLR 56.5 18.1 22% 30.02 0.0
09 01:15 W 8 10.00 Fair CLR 57.6 17.6 21% 30.02 0.0
09 00:55 NW 10 10.00 Fair CLR 59 17.4 20% 30.03 0.0
09 00:35 NW 9 10.00 Fair CLR 57.9 17.4 20% 30.03 0.0
09 00:15 NW 8 10.00 Fair CLR 60.3 17.2 19% 30.02 0.0
08 23:55 NW 10 10.00 Fair CLR 62.2 17.2 79.9 60.3 17% 30.03 0.0
08 23:35 NW 12 10.00 Fair CLR 62.1 17.4 18% 30.02 0.0
08 23:15 NW 12 10.00 Fair CLR 62.8 16.7 17% 30.02 0.0
08 22:55 NW 8 10.00 Fair CLR 61.5 16.5 17% 30.03 0.0
08 22:35 NW 8 10.00 Fair CLR 62.2 16.2 17% 30.03 0.0
08 22:15 NW 6 10.00 Fair CLR 62.1 15.8 16% 30.03 0.0
08 21:55 NW 7 10.00 Fair CLR 63.1 15.8 16% 30.02 0.0
08 21:35 NW 8 10.00 Fair CLR 65.5 15.4 14% 30.01 0.0
08 21:15 NW 5 10.00 Fair CLR 66.4 15.8 14% 30 0.0
08 20:50 Vrbl 5 10.00 Fair CLR 68 14 12% 30 0.0
08 19:50 NW 14 10.00 Fair CLR 75.2 14 10% 75 29.98 0.0
08 18:50 NW 16 G 20 10.00 Fair CLR 78.8 14 8% 77 29.98 0.0
08 17:50 NW 5 G 22 10.00 Fair CLR 78.8 14 8% 77 29.98 0.0
08 16:48 NW 16 G 26 10.00 Fair CLR 80.6 12.2 7% 78 29.98 0.0
08 15:47 NW 14 G 22 10.00 Fair CLR 82.4 15.8 8% 80 29.99 0.0
08 14:55 W 12 G 24 10.00 Fair CLR 78.8 15.8 9% 77 30 0.0
08 13:55 W 10 G 20 10.00 Fair CLR 78.8 17.6 10% 77 30.02 0.0
08 12:50 W 12 G 28 10.00 Fair CLR 77 19.4 11% 76 30.04 0.0
08 11:50 NW 16 G 22 10.00 Fair CLR 73.4 19.4 13% 30.07 0.0
08 10:50 Vrbl 7 10.00 Fair CLR 68 19.4 16% 30.09 0.0
08 09:50 Calm 10.00 Fair CLR 66.2 19.4 17% 30.11 0.0
08 08:50 Calm 10.00 Fair CLR 62.6 19.4 19% 30.1 0.0
08 07:50 Calm 10.00 Fair CLR 57.2 17.6 21% 30.1 0.0
08 06:50 S 6 10.00 Fair CLR 44.6 15.8 31% 42 30.08 0.0
08 05:35 Calm 10.00 Fair CLR 44.8 13.6 28% 30.06 0.0
08 05:15 S 3 10.00 Fair CLR 43.5 13.8 30% 30.06 0.0
08 04:55 S 3 10.00 Fair CLR 48 13.6 25% 30.06 0.0
08 04:35 Calm 10.00 Fair CLR 43.7 14.4 30% 30.05 0.0
08 04:15 W 6 10.00 Fair CLR 43.9 14.2 30% 41 30.05 0.0
08 03:55 NW 5 10.00 Fair CLR 42.4 14 31% 40 30.04 0.0
08 03:35 NW 7 10.00 Fair CLR 45.7 13.6 27% 43 30.05 0.0
08 03:15 NW 6 10.00 Fair CLR 50.2 12.2 22% 30.04 0.0
08 02:55 Calm 10.00 Fair CLR 53.2 11.5 19% 30.05 0.0
08 02:35 E 3 10.00 Fair CLR 46.9 12.4 25% 30.05 0.0
08 02:15 W 6 10.00 Fair CLR 44.1 12 27% 41 30.05 0.0
08 01:55 W 6 10.00 Fair CLR 45.5 10.9 24% 43 30.05 0.0
08 01:35 NW 8 10.00 Fair CLR 50.9 9.5 19% 30.06 0.0
08 01:15 W 9 10.00 Fair CLR 46.9 10.4 23% 43 30.06 0.0
08 00:55 NW 6 10.00 Fair CLR 47.7 10.4 22% 45 30.06 0.0
08 00:35 W 6 10.00 Fair CLR 48 10.2 21% 46 30.06 0.0
08 00:15 W 8 10.00 Fair CLR 49.3 9.5 20% 46 30.07 0.0
07 23:55 W 8 10.00 Fair CLR 50.7 9.7 72.3 46.8 19% 30.06 0.0
07 23:35 W 7 10.00 Fair CLR 51.3 8.4 18% 30.06 0.0
07 23:15 W 8 10.00 Fair CLR 50.7 7.7 17% 30.07 0.0
07 22:55 SW 10 10.00 Fair CLR 52.2 7 16% 30.06 0.0
07 22:35 W 9 10.00 Fair CLR 54.3 6.1 14% 30.07 0.0
07 22:15 SW 7 10.00 Fair CLR 48.7 8.6 19% 46 30.06 0.0
07 21:55 W 3 10.00 Fair CLR 52 6.8 16% 30.06 0.0
07 21:35 NW 6 10.00 Fair CLR 53.8 6.1 14% 30.06 0.0
07 21:15 NW 6 10.00 Fair CLR 57.7 3.4 11% 30.05 0.0
07 19:49 N 8 10.00 Fair CLR 66.2 10.4 11% 30.02 0.0
07 18:55 SW 8 10.00 Fair CLR 69.8 8.6 9% 30 0.0
07 17:50 SW 7 10.00 Fair CLR 71.6 8.6 8% 30 0.0
07 16:47 NW 6 10.00 Fair CLR 71.6 6.8 8% 30.03 0.0
07 15:47 NW 6 10.00 Fair CLR 71.6 1.4 6% 30.05 0.0
07 14:50 W 7 10.00 Fair CLR 68 6.8 9% 30.08 0.0
07 13:50 W 6 10.00 Fair CLR 66.2 10.4 11% 30.11 0.0
07 12:48 N 5 10.00 Fair CLR 62.6 14 15% 30.14 0.0
07 11:48 N 5 10.00 Fair CLR 59 21.2 23% 30.17 0.0
07 10:50 N 8 10.00 Fair CLR 55.4 21.2 26% 30.19 0.0
07 09:47 N 7 10.00 Fair CLR 51.8 24.8 35% 30.21 0.0
Date Time (mdt) Wind (mph) Vis. (mi.) Weather Sky Cond. Air Dwpt Max. Min. Relative Humidity Wind Chill (°F) Heat Index (°F) altimeter (in) sea level (mb) 1 hr 3 hr 6 hr
6 hour
Temperature (ºF) Pressure Precipitation (in)